createdAt,value
2023-04-09T00:01:08.804Z,9.00
2023-04-09T00:03:36.540Z,8.90
2023-04-09T00:06:04.661Z,9.00
2023-04-09T00:08:31.962Z,8.90
2023-04-09T00:10:59.686Z,9.00
2023-04-09T00:13:38.388Z,8.90
2023-04-09T00:16:07.244Z,8.90
2023-04-09T00:18:34.493Z,9.00
2023-04-09T00:21:01.756Z,8.90
2023-04-09T00:23:29.088Z,9.00
2023-04-09T00:25:56.371Z,9.00
2023-04-09T00:28:23.644Z,9.00
2023-04-09T00:30:50.921Z,9.00
2023-04-09T00:33:18.256Z,9.10
2023-04-09T00:35:45.601Z,9.10
2023-04-09T00:38:12.932Z,9.20
2023-04-09T00:40:41.051Z,9.20
2023-04-09T00:43:08.258Z,9.20
2023-04-09T00:45:36.145Z,9.30
2023-04-09T00:48:03.622Z,9.30
2023-04-09T00:50:30.941Z,9.30
2023-04-09T00:52:58.235Z,9.20
2023-04-09T00:55:25.528Z,9.20
2023-04-09T00:57:52.804Z,9.20
2023-04-09T01:00:20.627Z,9.30
2023-04-09T01:02:48.542Z,9.30
2023-04-09T01:05:16.202Z,9.30
2023-04-09T01:07:46.553Z,9.20
2023-04-09T01:10:13.831Z,9.30
2023-04-09T01:12:50.405Z,9.20
2023-04-09T01:15:38.701Z,9.20
2023-04-09T01:18:15.940Z,9.20
2023-04-09T01:20:47.055Z,9.30
2023-04-09T01:23:17.873Z,9.30
2023-04-09T01:25:45.998Z,9.30
2023-04-09T01:28:19.482Z,9.30
2023-04-09T01:30:51.073Z,9.20
2023-04-09T01:33:19.633Z,9.20
2023-04-09T01:35:47.629Z,9.10
2023-04-09T01:38:16.631Z,9.10
2023-04-09T01:40:44.059Z,9.10
2023-04-09T01:43:12.297Z,9.00
2023-04-09T01:45:40.279Z,9.00
2023-04-09T01:48:08.165Z,9.10
2023-04-09T01:50:35.641Z,9.10
2023-04-09T01:53:03.333Z,9.10
2023-04-09T01:55:30.910Z,9.10
2023-04-09T01:57:58.294Z,9.10
2023-04-09T02:00:31.107Z,9.00
2023-04-09T02:03:10.369Z,9.00
2023-04-09T02:05:39.147Z,9.00
2023-04-09T02:08:07.270Z,9.00
2023-04-09T02:10:35.439Z,9.00
2023-04-09T02:13:05.815Z,9.00
2023-04-09T02:15:34.362Z,9.00
2023-04-09T02:18:01.665Z,8.90
2023-04-09T02:20:29.106Z,8.90
2023-04-09T02:22:56.360Z,8.90
2023-04-09T02:25:24.151Z,8.80
2023-04-09T02:27:51.435Z,8.80
2023-04-09T02:30:18.696Z,8.80
2023-04-09T02:32:45.925Z,8.70
2023-04-09T02:35:14.576Z,8.70
2023-04-09T02:37:41.839Z,8.70
2023-04-09T02:40:09.465Z,8.70
2023-04-09T02:42:36.883Z,8.70
2023-04-09T02:45:04.281Z,8.70
2023-04-09T02:47:31.686Z,8.70
2023-04-09T02:49:58.935Z,8.70
2023-04-09T02:52:26.260Z,8.70
2023-04-09T02:54:53.495Z,8.70
2023-04-09T02:57:20.767Z,8.70
2023-04-09T02:59:48.108Z,8.70
2023-04-09T03:02:15.559Z,8.70
2023-04-09T03:04:42.852Z,8.60
2023-04-09T03:07:10.264Z,8.60
2023-04-09T03:09:37.558Z,8.60
2023-04-09T03:12:04.858Z,8.60
2023-04-09T03:14:33.321Z,8.50
2023-04-09T03:17:02.016Z,8.50
2023-04-09T03:19:30.768Z,8.50
2023-04-09T03:21:58.045Z,8.50
2023-04-09T03:24:25.335Z,8.40
2023-04-09T03:26:52.580Z,8.40
2023-04-09T03:29:19.835Z,8.40
2023-04-09T03:31:47.075Z,8.30
2023-04-09T03:34:14.321Z,8.30
2023-04-09T03:36:41.564Z,8.30
2023-04-09T03:39:08.809Z,8.30
2023-04-09T03:41:36.094Z,8.30
2023-04-09T03:44:03.172Z,8.30
2023-04-09T03:46:30.435Z,8.30
2023-04-09T03:48:57.865Z,8.30
2023-04-09T03:51:25.164Z,8.30
2023-04-09T03:53:52.636Z,8.30
2023-04-09T03:56:19.915Z,8.30
2023-04-09T03:58:49.803Z,8.30
2023-04-09T04:01:17.147Z,8.20
2023-04-09T04:03:44.472Z,8.20
2023-04-09T04:06:11.795Z,8.20
2023-04-09T04:08:39.096Z,8.20
2023-04-09T04:11:06.405Z,8.10
2023-04-09T04:13:33.669Z,8.10
2023-04-09T04:16:01.002Z,8.10
2023-04-09T04:18:28.342Z,8.10
2023-04-09T04:20:55.656Z,8.20
2023-04-09T04:23:23.052Z,8.20
2023-04-09T04:25:50.639Z,8.10
2023-04-09T04:28:17.901Z,8.10
2023-04-09T04:30:45.190Z,8.10
2023-04-09T04:33:12.442Z,8.20
2023-04-09T04:35:39.753Z,8.20
2023-04-09T04:38:06.996Z,8.20
2023-04-09T04:40:34.884Z,8.20
2023-04-09T04:43:02.224Z,8.20
2023-04-09T04:45:29.493Z,8.20
2023-04-09T04:47:56.809Z,8.20
2023-04-09T04:50:24.109Z,8.20
2023-04-09T04:52:51.436Z,8.20
2023-04-09T04:55:18.746Z,8.20
2023-04-09T04:57:46.017Z,8.20
2023-04-09T05:00:13.576Z,8.20
2023-04-09T05:02:41.052Z,8.10
2023-04-09T05:05:08.531Z,8.10
2023-04-09T05:07:35.986Z,8.20
2023-04-09T05:10:03.629Z,8.10
2023-04-09T05:12:31.653Z,8.20
2023-04-09T05:14:59.054Z,8.10
2023-04-09T05:17:26.449Z,8.10
2023-04-09T05:19:54.139Z,8.10
2023-04-09T05:22:21.605Z,8.10
2023-04-09T05:24:49.055Z,8.10
2023-04-09T05:27:16.682Z,8.10
2023-04-09T05:29:43.931Z,8.00
2023-04-09T05:32:11.204Z,8.00
2023-04-09T05:34:38.614Z,7.90
2023-04-09T05:37:05.833Z,7.90
2023-04-09T05:39:33.200Z,7.90
2023-04-09T05:42:00.955Z,7.90
2023-04-09T05:44:28.348Z,7.80
2023-04-09T05:46:55.664Z,7.80
2023-04-09T05:49:22.885Z,7.80
2023-04-09T05:51:50.563Z,7.80
2023-04-09T05:54:18.008Z,7.80
2023-04-09T05:56:45.228Z,7.80
2023-04-09T05:59:12.673Z,7.80
2023-04-09T06:01:39.978Z,7.80
2023-04-09T06:04:07.402Z,7.80
2023-04-09T06:06:34.771Z,7.80
2023-04-09T06:09:02.031Z,7.80
2023-04-09T06:11:29.253Z,7.80
2023-04-09T06:13:56.558Z,7.80
2023-04-09T06:16:23.860Z,7.80
2023-04-09T06:18:54.415Z,7.80
2023-04-09T06:21:21.728Z,7.70
2023-04-09T06:23:49.049Z,7.80
2023-04-09T06:26:16.394Z,7.80
2023-04-09T06:28:43.866Z,7.80
2023-04-09T06:31:11.303Z,7.80
2023-04-09T06:33:38.602Z,7.70
2023-04-09T06:36:06.100Z,7.70
2023-04-09T06:38:33.367Z,7.80
2023-04-09T06:41:00.888Z,7.80
2023-04-09T06:43:28.144Z,7.70
2023-04-09T06:45:55.365Z,7.70
2023-04-09T06:48:22.589Z,7.70
2023-04-09T06:50:49.830Z,7.70
2023-04-09T06:53:17.708Z,7.70
2023-04-09T06:55:44.997Z,7.70
2023-04-09T06:58:12.248Z,7.80
2023-04-09T07:00:39.740Z,7.80
2023-04-09T07:03:09.273Z,7.80
2023-04-09T07:05:37.086Z,7.90
2023-04-09T07:08:04.439Z,8.00
2023-04-09T07:10:31.816Z,8.00
2023-04-09T07:12:59.062Z,8.10
2023-04-09T07:15:26.405Z,8.20
2023-04-09T07:17:53.687Z,8.20
2023-04-09T07:20:21.001Z,8.30
2023-04-09T07:22:48.232Z,8.40
2023-04-09T07:25:16.141Z,8.50
2023-04-09T07:27:43.449Z,8.50
2023-04-09T07:30:10.875Z,8.70
2023-04-09T07:32:38.804Z,8.70
2023-04-09T07:35:07.107Z,8.80
2023-04-09T07:37:34.344Z,8.80
2023-04-09T07:40:03.120Z,8.90
2023-04-09T07:42:30.602Z,8.80
2023-04-09T07:44:57.876Z,8.90
2023-04-09T07:47:25.977Z,8.90
2023-04-09T07:49:53.307Z,9.00
2023-04-09T07:52:20.667Z,9.10
2023-04-09T07:54:47.912Z,9.10
2023-04-09T07:57:15.167Z,9.20
2023-04-09T07:59:42.377Z,9.30
2023-04-09T08:02:10.588Z,9.40
2023-04-09T08:04:39.463Z,9.40
2023-04-09T08:07:06.783Z,9.50
2023-04-09T08:09:34.052Z,9.60
2023-04-09T08:12:01.299Z,9.70
2023-04-09T08:14:28.584Z,9.70
2023-04-09T08:16:56.467Z,9.70
2023-04-09T08:19:23.777Z,9.70
2023-04-09T08:21:51.369Z,9.70
2023-04-09T08:24:18.718Z,9.70
2023-04-09T08:26:46.105Z,9.60
2023-04-09T08:29:13.706Z,9.70
2023-04-09T08:31:41.317Z,9.70
2023-04-09T08:34:08.660Z,9.80
2023-04-09T08:36:36.232Z,9.80
2023-04-09T08:39:04.079Z,9.80
2023-04-09T08:41:31.598Z,9.80
2023-04-09T08:43:59.918Z,9.90
2023-04-09T08:46:27.885Z,10.00
2023-04-09T08:48:55.610Z,10.00
2023-04-09T08:51:24.078Z,10.20
2023-04-09T08:53:56.554Z,10.20
2023-04-09T08:56:24.264Z,10.20
2023-04-09T08:58:51.823Z,10.20
2023-04-09T09:01:23.465Z,10.20
2023-04-09T09:03:53.061Z,10.30
2023-04-09T09:06:21.883Z,10.50
2023-04-09T09:09:07.434Z,10.60
2023-04-09T09:11:38.461Z,10.60
2023-04-09T09:14:09.356Z,10.60
2023-04-09T09:16:40.828Z,10.80
2023-04-09T09:19:08.700Z,10.80
2023-04-09T09:21:36.535Z,10.80
2023-04-09T09:24:16.502Z,10.90
2023-04-09T09:26:43.805Z,11.00
2023-04-09T09:29:11.090Z,11.00
2023-04-09T09:31:49.439Z,11.10
2023-04-09T09:34:17.827Z,11.20
2023-04-09T09:36:45.891Z,11.30
2023-04-09T09:39:13.715Z,11.40
2023-04-09T09:41:43.963Z,11.50
2023-04-09T09:44:12.914Z,11.60
2023-04-09T09:46:42.305Z,11.70
2023-04-09T09:53:17.571Z,12.00
2023-04-09T09:55:48.872Z,11.90
2023-04-09T09:58:24.373Z,11.90
2023-04-09T10:00:52.679Z,12.00
2023-04-09T10:03:21.390Z,12.10
2023-04-09T10:05:48.969Z,12.20
2023-04-09T10:08:16.678Z,12.30
2023-04-09T10:10:44.810Z,12.30
2023-04-09T10:13:41.416Z,12.30
2023-04-09T10:16:09.066Z,12.50
2023-04-09T10:18:36.584Z,12.70
2023-04-09T10:21:14.569Z,12.80
2023-04-09T10:23:45.240Z,13.00
2023-04-09T10:26:12.520Z,13.20
2023-04-09T10:32:43.903Z,13.30
2023-04-09T10:35:11.315Z,13.40
2023-04-09T10:37:38.731Z,13.40
2023-04-09T10:40:06.216Z,13.40
2023-04-09T10:42:36.569Z,13.40
2023-04-09T10:45:05.158Z,13.40
2023-04-09T10:47:34.012Z,13.50
2023-04-09T10:50:19.960Z,13.70
2023-04-09T10:52:51.654Z,13.60
2023-04-09T10:55:31.493Z,13.60
2023-04-09T10:57:58.895Z,13.70
2023-04-09T11:00:26.164Z,13.70
2023-04-09T11:03:31.847Z,13.80
2023-04-09T11:06:09.303Z,13.90
2023-04-09T11:08:38.354Z,13.90
2023-04-09T11:15:19.345Z,14.00
2023-04-09T11:17:47.095Z,14.10
2023-04-09T11:20:15.348Z,14.30
2023-04-09T11:22:42.736Z,14.50
2023-04-09T11:25:10.014Z,14.90
2023-04-09T11:27:38.010Z,15.20
2023-04-09T11:30:06.468Z,15.50
2023-04-09T11:32:33.787Z,15.50
2023-04-09T11:35:01.256Z,15.20
2023-04-09T11:37:28.576Z,15.20
2023-04-09T11:39:57.927Z,15.40
2023-04-09T11:46:33.207Z,15.80
2023-04-09T11:49:00.654Z,16.20
2023-04-09T11:51:28.542Z,16.10
2023-04-09T11:53:55.837Z,15.70
2023-04-09T11:56:23.152Z,15.90
2023-04-09T11:58:50.502Z,16.10
2023-04-09T12:01:18.010Z,16.10
2023-04-09T12:03:51.977Z,16.00
2023-04-09T12:06:20.873Z,16.50
2023-04-09T12:08:52.621Z,16.60
2023-04-09T12:11:20.252Z,16.50
2023-04-09T12:13:47.735Z,16.60
2023-04-09T12:16:19.242Z,17.00
2023-04-09T12:18:47.482Z,17.00
2023-04-09T12:21:14.747Z,17.10
2023-04-09T12:23:42.007Z,17.20
2023-04-09T12:26:09.280Z,17.10
2023-04-09T12:28:36.585Z,17.10
2023-04-09T12:31:03.965Z,17.30
2023-04-09T12:33:32.285Z,17.10
2023-04-09T12:35:59.640Z,17.00
2023-04-09T12:38:26.970Z,17.40
2023-04-09T12:40:54.342Z,17.70
2023-04-09T12:43:21.700Z,17.80
2023-04-09T12:45:48.989Z,18.00
2023-04-09T12:48:16.279Z,18.10
2023-04-09T12:50:43.544Z,17.90
2023-04-09T12:53:11.779Z,17.80
2023-04-09T12:55:40.408Z,18.10
2023-04-09T12:58:09.545Z,18.50
2023-04-09T13:00:36.829Z,18.30
2023-04-09T13:03:04.255Z,17.80
2023-04-09T13:05:35.444Z,17.80
2023-04-09T13:08:03.497Z,18.10
2023-04-09T13:10:31.298Z,18.60
2023-04-09T13:12:58.448Z,18.70
2023-04-09T13:15:25.750Z,18.70
2023-04-09T13:17:53.075Z,19.10
2023-04-09T13:20:20.956Z,19.10
2023-04-09T13:22:49.142Z,19.20
2023-04-09T13:25:16.753Z,19.40
2023-04-09T13:27:44.230Z,19.60
2023-04-09T13:30:11.650Z,19.40
2023-04-09T13:32:38.966Z,19.00
2023-04-09T13:35:06.584Z,19.30
2023-04-09T13:37:33.827Z,20.00
2023-04-09T13:40:01.294Z,20.20
2023-04-09T13:42:28.699Z,20.40
2023-04-09T13:44:56.639Z,20.10
2023-04-09T13:47:24.045Z,19.90
2023-04-09T13:49:54.484Z,19.70
2023-04-09T13:52:21.791Z,19.50
2023-04-09T13:54:49.530Z,20.00
2023-04-09T13:57:17.083Z,20.20
2023-04-09T13:59:44.415Z,20.10
2023-04-09T14:02:12.043Z,20.10
2023-04-09T14:04:39.430Z,19.70
2023-04-09T14:07:07.353Z,19.40
2023-04-09T14:09:34.641Z,19.20
2023-04-09T14:12:01.957Z,19.00
2023-04-09T14:14:29.232Z,18.90
2023-04-09T14:16:57.619Z,18.90
2023-04-09T14:19:24.965Z,18.90
2023-04-09T14:21:53.348Z,18.90
2023-04-09T14:24:23.034Z,19.10
2023-04-09T14:26:53.315Z,19.10
2023-04-09T14:29:22.104Z,19.10
2023-04-09T14:31:49.727Z,18.50
2023-04-09T14:34:17.173Z,18.20
2023-04-09T14:36:44.444Z,18.40
2023-04-09T14:39:11.722Z,18.30
2023-04-09T14:41:39.037Z,18.10
2023-04-09T14:44:06.327Z,18.00
2023-04-09T14:46:33.599Z,17.70
2023-04-09T14:49:01.004Z,17.30
2023-04-09T14:51:30.416Z,17.10
2023-04-09T14:53:58.001Z,17.00
2023-04-09T14:56:25.301Z,17.00
2023-04-09T14:58:52.845Z,16.90
2023-04-09T15:01:20.845Z,16.90
2023-04-09T15:03:48.392Z,16.90
2023-04-09T15:06:15.762Z,17.00
2023-04-09T15:08:43.003Z,17.10
2023-04-09T15:11:14.501Z,17.00
2023-04-09T15:13:41.836Z,16.90
2023-04-09T15:16:09.262Z,16.80
2023-04-09T15:18:37.467Z,16.80
2023-04-09T15:21:04.846Z,16.70
2023-04-09T15:23:32.139Z,16.70
2023-04-09T15:25:59.486Z,16.60
2023-04-09T15:28:26.776Z,16.50
2023-04-09T15:30:54.805Z,16.40
2023-04-09T15:33:22.146Z,16.60
2023-04-09T15:35:49.568Z,16.60
2023-04-09T15:38:17.196Z,16.50
2023-04-09T15:40:44.544Z,16.40
2023-04-09T15:43:11.802Z,16.30
2023-04-09T15:45:39.087Z,16.20
2023-04-09T15:48:06.617Z,16.20
2023-04-09T15:50:34.368Z,16.20
2023-04-09T15:53:01.609Z,16.30
2023-04-09T15:55:28.896Z,16.20
2023-04-09T15:57:56.174Z,16.20
2023-04-09T16:00:24.240Z,16.20
2023-04-09T16:02:53.026Z,16.20
2023-04-09T16:05:20.380Z,16.10
2023-04-09T16:07:49.878Z,16.10
2023-04-09T16:10:17.634Z,16.10
2023-04-09T16:12:44.886Z,16.10
2023-04-09T16:15:12.145Z,16.00
2023-04-09T16:17:41.234Z,15.90
2023-04-09T16:20:08.866Z,16.00
2023-04-09T16:22:36.155Z,15.90
2023-04-09T16:25:03.548Z,15.90
2023-04-09T16:27:30.854Z,15.90
2023-04-09T16:34:03.138Z,15.80
2023-04-09T16:36:31.552Z,15.80
2023-04-09T16:43:02.578Z,15.80
2023-04-09T16:49:33.874Z,15.70
2023-04-09T16:52:01.137Z,15.70
2023-04-09T16:54:28.388Z,15.50
2023-04-09T16:56:57.307Z,15.50
2023-04-09T16:59:24.728Z,15.40
2023-04-09T17:01:52.246Z,15.30
2023-04-09T17:08:14.095Z,15.20
2023-04-09T17:10:41.369Z,15.10
2023-04-09T17:13:08.732Z,15.10
2023-04-09T17:15:36.287Z,15.00
2023-04-09T17:18:04.320Z,14.90
2023-04-09T17:20:31.762Z,14.90
2023-04-09T17:22:59.018Z,14.80
2023-04-09T17:25:26.278Z,14.80
2023-04-09T17:27:53.548Z,14.80
2023-04-09T17:30:21.265Z,14.70
2023-04-09T17:32:49.952Z,14.60
2023-04-09T17:35:17.273Z,14.60
2023-04-09T17:37:45.212Z,14.50
2023-04-09T17:44:17.336Z,14.40
2023-04-09T17:46:45.939Z,14.40
2023-04-09T17:49:13.288Z,14.40
2023-04-09T17:51:40.552Z,14.40
2023-04-09T17:54:07.918Z,14.40
2023-04-09T17:56:38.823Z,14.40
2023-04-09T17:59:07.218Z,14.40
2023-04-09T18:01:34.552Z,14.30
2023-04-09T18:04:02.143Z,14.30
2023-04-09T18:06:29.659Z,14.30
2023-04-09T18:08:56.946Z,14.30
2023-04-09T18:11:24.320Z,14.30
2023-04-09T18:13:51.627Z,14.20
2023-04-09T18:16:20.769Z,14.20
2023-04-09T18:18:48.150Z,14.10
2023-04-09T18:21:15.449Z,14.20
2023-04-09T18:23:42.709Z,14.10
2023-04-09T18:26:10.060Z,14.10
2023-04-09T18:28:37.330Z,14.10
2023-04-09T18:31:04.766Z,14.10
2023-04-09T18:33:32.151Z,14.00
2023-04-09T18:35:59.953Z,14.00
2023-04-09T18:38:28.725Z,14.00
2023-04-09T18:40:58.903Z,14.00
2023-04-09T18:43:26.220Z,14.00
2023-04-09T18:45:53.830Z,14.00
2023-04-09T18:48:21.427Z,13.90
2023-04-09T18:50:48.853Z,13.90
2023-04-09T18:53:16.563Z,13.90
2023-04-09T18:55:43.926Z,13.90
2023-04-09T18:58:15.622Z,13.90
2023-04-09T19:00:43.614Z,13.90
2023-04-09T19:03:11.332Z,13.90
2023-04-09T19:05:39.684Z,13.80
2023-04-09T19:08:07.491Z,13.80
2023-04-09T19:10:34.954Z,13.80
2023-04-09T19:17:07.088Z,13.80
2023-04-09T19:19:34.644Z,13.70
2023-04-09T19:22:02.184Z,13.70
2023-04-09T19:24:29.500Z,13.70
2023-04-09T19:26:57.304Z,13.60
2023-04-09T19:29:24.656Z,13.50
2023-04-09T19:31:52.024Z,13.50
2023-04-09T19:34:19.374Z,13.50
2023-04-09T19:40:54.101Z,13.40
2023-04-09T19:43:21.392Z,13.30
2023-04-09T19:45:48.644Z,13.40
2023-04-09T19:48:16.113Z,13.30
2023-04-09T19:50:45.295Z,13.30
2023-04-09T19:57:19.761Z,13.30
2023-04-09T19:59:49.248Z,13.30
2023-04-09T20:06:35.591Z,13.20
2023-04-09T20:09:02.920Z,13.20
2023-04-09T20:11:30.151Z,13.20
2023-04-09T20:13:57.472Z,13.20
2023-04-09T20:16:24.766Z,13.30
2023-04-09T20:18:52.629Z,13.20
2023-04-09T20:21:20.012Z,13.20
2023-04-09T20:23:47.287Z,13.20
2023-04-09T20:26:14.768Z,13.20
2023-04-09T20:28:42.067Z,13.20
2023-04-09T20:31:09.361Z,13.20
2023-04-09T20:33:36.621Z,13.20
2023-04-09T20:36:03.954Z,13.20
2023-04-09T20:38:31.735Z,13.20
2023-04-09T20:40:59.107Z,13.10
2023-04-09T20:43:26.391Z,13.10
2023-04-09T20:45:53.657Z,13.10
2023-04-09T20:48:21.179Z,13.10
2023-04-09T20:50:48.500Z,13.10
2023-04-09T20:53:15.822Z,13.10
2023-04-09T20:55:43.151Z,13.10
2023-04-09T20:58:10.447Z,13.10
2023-04-09T21:00:37.926Z,13.10
2023-04-09T21:03:05.329Z,13.10
2023-04-09T21:05:32.815Z,13.10
2023-04-09T21:08:00.116Z,13.10
2023-04-09T21:10:27.419Z,13.10
2023-04-09T21:12:54.722Z,13.00
2023-04-09T21:15:22.067Z,13.00
2023-04-09T21:17:49.412Z,13.00
2023-04-09T21:20:16.782Z,13.00
2023-04-09T21:22:44.320Z,13.00
2023-04-09T21:25:14.609Z,13.00
2023-04-09T21:27:42.561Z,13.00
2023-04-09T21:34:13.756Z,13.00
2023-04-09T21:36:41.366Z,13.00
2023-04-09T21:39:08.718Z,13.00
2023-04-09T21:41:35.990Z,13.00
2023-04-09T21:44:08.143Z,13.00
2023-04-09T21:46:36.958Z,13.00
2023-04-09T21:49:04.500Z,13.00
2023-04-09T21:51:32.333Z,13.00
2023-04-09T21:54:06.819Z,13.00
2023-04-09T22:00:41.710Z,13.00
2023-04-09T22:03:09.319Z,13.00
2023-04-09T22:05:36.846Z,13.00
2023-04-09T22:08:04.170Z,12.90
2023-04-09T22:14:49.008Z,13.00
2023-04-09T22:21:33.872Z,13.00
2023-04-09T22:24:01.144Z,13.00
2023-04-09T22:26:28.857Z,13.00
2023-04-09T22:28:56.483Z,13.00
2023-04-09T22:31:23.857Z,13.00
2023-04-09T22:33:51.069Z,13.00
2023-04-09T22:40:22.954Z,13.00
2023-04-09T22:42:51.356Z,13.00
2023-04-09T22:45:18.647Z,13.00
2023-04-09T22:47:45.946Z,13.00
2023-04-09T22:50:14.028Z,13.00
2023-04-09T22:52:41.363Z,13.00
2023-04-09T22:55:10.170Z,13.00
2023-04-09T22:57:38.394Z,13.10
2023-04-09T23:00:06.171Z,13.10
2023-04-09T23:02:33.609Z,13.10
2023-04-09T23:05:02.057Z,13.10
2023-04-09T23:07:29.477Z,13.10
2023-04-09T23:09:56.720Z,13.10
2023-04-09T23:12:24.038Z,13.10
2023-04-09T23:14:51.315Z,13.10
2023-04-09T23:17:18.896Z,13.10
2023-04-09T23:19:52.357Z,13.10
2023-04-09T23:22:19.636Z,13.10
2023-04-09T23:24:46.948Z,13.10
2023-04-09T23:27:14.208Z,13.10
2023-04-09T23:29:41.524Z,13.10
2023-04-09T23:32:08.830Z,13.10
2023-04-09T23:34:36.251Z,13.10
2023-04-09T23:37:03.596Z,13.10
2023-04-09T23:39:30.952Z,13.10
2023-04-09T23:41:58.583Z,13.10
2023-04-09T23:48:29.827Z,13.10
2023-04-09T23:50:57.120Z,13.10
2023-04-09T23:53:24.850Z,13.10
2023-04-09T23:55:52.768Z,13.10
2023-04-09T23:58:21.216Z,13.10
